Time;durP1;ratioP1;P1;durP2;ratioP2;P2;SDS_P1;SDS_P2;PMS_P1;PMS_P2;Temp;Humidity;BMP_temperature;BMP_pressure;BME280_temperature;BME280_humidity;BME280_pressure;Samples;Min_cycle;Max_cycle;Signal;HPM_P1;HPM_P2
2022/09/17 00:15:53;;;;;;;15.15;3.33;;;37.00;30.80;;;;;;5106099;27;20420;-62
2022/09/17 00:18:19;;;;;;;36.72;27.45;;;37.10;31.80;;;;;;5087511;28;20016;-61
2022/09/17 00:20:46;;;;;;;13.77;3.85;;;37.20;39.90;;;;;;5106595;28;20028;-62
2022/09/17 00:23:13;;;;;;;10.50;2.28;;;34.50;42.40;;;;;;5104750;28;20070;-60
2022/09/17 00:25:41;;;;;;;11.30;2.53;;;36.80;32.50;;;;;;5104911;28;20028;-64
2022/09/17 00:28:08;;;;;;;9.52;2.28;;;36.70;31.80;;;;;;5104175;28;20023;-62
2022/09/17 00:30:38;;;;;;;9.68;2.10;;;36.70;31.70;;;;;;5104384;28;20024;-62
2022/09/17 00:33:04;;;;;;;12.73;2.65;;;36.60;32.30;;;;;;5101557;28;20019;-62
2022/09/17 00:35:30;;;;;;;12.07;1.90;;;36.40;33.30;;;;;;5104999;28;20036;-62
2022/09/17 00:37:57;;;;;;;15.48;2.72;;;36.30;34.10;;;;;;5105457;28;20026;-62
2022/09/17 00:40:23;;;;;;;11.35;2.13;;;36.30;33.60;;;;;;5104744;28;20027;-62
2022/09/17 00:42:52;;;;;;;12.13;2.33;;;36.20;32.50;;;;;;5103851;28;20028;-62
2022/09/17 00:45:19;;;;;;;12.90;2.17;;;36.10;32.90;;;;;;5104657;28;20028;-63
2022/09/17 00:48:01;;;;;;;8.15;2.03;;;36.00;33.70;;;;;;5086781;28;20024;-61
2022/09/17 00:50:35;;;;;;;15.07;2.08;;;35.90;32.90;;;;;;5105015;28;20023;-63
2022/09/17 00:53:17;;;;;;;11.88;2.53;;;35.90;33.30;;;;;;5104223;28;20035;-63
2022/09/17 00:56:05;;;;;;;15.57;2.33;;;35.80;33.40;;;;;;5104479;28;20032;-61
2022/09/17 00:58:35;;;;;;;15.30;2.42;;;35.80;32.10;;;;;;5103027;28;20043;-62
2022/09/17 01:01:03;;;;;;;12.75;2.75;;;35.70;32.60;;;;;;5104168;28;20019;-62
2022/09/17 01:03:29;;;;;;;10.20;2.58;;;35.70;33.40;;;;;;5086688;28;20026;-64
2022/09/17 01:06:11;;;;;;;13.30;2.63;;;35.60;34.00;;;;;;5107004;28;20023;-62
2022/09/17 01:08:53;;;;;;;10.00;2.20;;;35.50;35.10;;;;;;5102854;28;20024;-62
2022/09/17 01:11:30;;;;;;;14.30;2.72;;;35.30;35.10;;;;;;5085630;28;20028;-61
2022/09/17 01:14:03;;;;;;;10.38;2.00;;;35.30;33.30;;;;;;5103393;28;20036;-62
2022/09/17 01:16:42;;;;;;;7.53;2.40;;;35.20;34.70;;;;;;5103436;28;20073;-62
2022/09/17 01:19:30;;;;;;;16.55;2.50;;;35.10;35.10;;;;;;5103695;28;20034;-62
2022/09/17 01:22:07;;;;;;;6.97;2.10;;;35.00;36.40;;;;;;5103264;28;20382;-62
2022/09/17 01:24:48;;;;;;;14.23;2.92;;;34.90;37.20;;;;;;5103855;28;20028;-61
2022/09/17 01:27:44;;;;;;;8.63;3.08;;;34.70;38.20;;;;;;5087663;28;20386;-63
2022/09/17 01:30:37;;;;;;;10.30;2.85;;;34.60;37.80;;;;;;5088507;28;20106;-62
2022/09/17 01:33:29;;;;;;;9.40;2.95;;;34.50;39.30;;;;;;5062552;28;20046;-63
2022/09/17 01:36:17;;;;;;;14.30;2.92;;;34.40;39.20;;;;;;5089369;28;20023;-61
2022/09/17 01:39:17;;;;;;;9.00;3.00;;;34.30;39.50;;;;;;5074183;28;20071;-62
2022/09/17 01:41:53;;;;;;;11.35;3.03;;;34.30;39.50;;;;;;5089984;28;20507;-63
2022/09/17 01:44:29;;;;;;;16.85;3.17;;;34.20;39.00;;;;;;5072832;28;20926;-64
2022/09/17 01:47:40;;;;;;;18.08;2.95;;;34.10;40.00;;;;;;5095771;28;20024;-62
2022/09/17 01:50:16;;;;;;;13.82;3.17;;;33.90;39.60;;;;;;5048938;28;20517;-63
2022/09/17 01:52:45;;;;;;;10.80;3.80;;;33.90;39.90;;;;;;5015978;28;20483;-62
2022/09/17 01:55:15;;;;;;;24.52;3.83;;;33.80;39.90;;;;;;5015150;28;20033;-60
2022/09/17 01:57:41;;;;;;;11.45;3.58;;;33.80;41.40;;;;;;4999441;28;20479;-61
2022/09/17 02:00:14;;;;;;;9.90;3.08;;;33.60;40.20;;;;;;5032287;28;20475;-64
2022/09/17 02:02:57;;;;;;;17.25;3.08;;;33.60;40.50;;;;;;5032850;28;20057;-62
2022/09/17 02:05:35;;;;;;;24.88;3.38;;;33.40;40.40;;;;;;5031989;28;20552;-63
2022/09/17 02:08:19;;;;;;;19.17;3.17;;;33.40;40.80;;;;;;5047831;28;20033;-63
2022/09/17 02:11:16;;;;;;;24.10;3.90;;;33.30;40.30;;;;;;5031354;28;20047;-64
2022/09/17 02:13:55;;;;;;;13.05;3.65;;;33.20;40.60;;;;;;5044444;28;20098;-63
2022/09/17 02:16:30;;;;;;;16.70;3.63;;;33.20;40.00;;;;;;5031459;28;20487;-64
2022/09/17 02:19:06;;;;;;;15.27;3.90;;;33.20;40.60;;;;;;5030784;28;20428;-63
2022/09/17 02:22:00;;;;;;;23.90;3.95;;;33.10;40.20;;;;;;5030916;28;20034;-63
2022/09/17 02:25:08;;;;;;;20.70;4.22;;;33.00;39.70;;;;;;5032659;28;20039;-64
2022/09/17 02:27:34;;;;;;;26.83;3.92;;;33.00;39.60;;;;;;5086093;28;20058;-62
2022/09/17 02:30:01;;;;;;;24.85;4.30;;;32.90;39.00;;;;;;5087714;28;20352;-60
2022/09/17 02:32:27;;;;;;;22.40;4.38;;;32.80;39.60;;;;;;5087958;28;20035;-58
2022/09/17 02:34:53;;;;;;;24.98;4.35;;;32.80;39.50;;;;;;5085063;28;20125;-62
2022/09/17 02:37:20;;;;;;;16.33;5.03;;;32.70;39.40;;;;;;5087337;28;20542;-62
2022/09/17 02:39:47;;;;;;;27.80;6.13;;;32.70;39.70;;;;;;5071061;28;20051;-61
2022/09/17 02:42:38;;;;;;;35.25;6.63;;;32.60;40.10;;;;;;5076803;28;20148;-61
2022/09/17 02:45:19;;;;;;;58.45;11.88;;;32.60;39.70;;;;;;5071922;28;20036;-58
2022/09/17 02:48:04;;;;;;;53.03;12.00;;;32.50;40.10;;;;;;5087134;28;20044;-63
2022/09/17 02:50:30;;;;;;;25.80;7.13;;;32.50;40.20;;;;;;5069695;28;20096;-61
2022/09/17 02:53:27;;;;;;;28.38;7.63;;;32.40;41.00;;;;;;5087018;28;20123;-58
2022/09/17 02:56:12;;;;;;;43.60;8.80;;;32.30;41.00;;;;;;5085604;28;20043;-57
2022/09/17 02:58:44;;;;;;;25.80;7.43;;;32.30;41.20;;;;;;5085855;28;20057;-61
2022/09/17 03:01:33;;;;;;;34.05;7.00;;;32.20;41.40;;;;;;5087792;28;20035;-59
2022/09/17 03:04:02;;;;;;;30.55;7.32;;;32.20;41.50;;;;;;5084989;28;20037;-59
2022/09/17 03:06:28;;;;;;;31.25;8.18;;;32.10;42.20;;;;;;5087672;28;20048;-61
2022/09/17 03:08:56;;;;;;;31.33;7.40;;;32.10;42.60;;;;;;5072778;28;20033;-62
2022/09/17 03:11:22;;;;;;;31.50;7.35;;;32.00;42.70;;;;;;5087771;28;20057;-64
2022/09/17 03:13:49;;;;;;;29.70;7.55;;;31.90;43.20;;;;;;5087133;28;20191;-65
2022/09/17 03:16:15;;;;;;;25.05;7.88;;;31.90;43.10;;;;;;5087657;28;20414;-65
2022/09/17 03:18:41;;;;;;;28.00;10.32;;;31.80;43.40;;;;;;5089947;28;20044;-64
2022/09/17 03:21:08;;;;;;;30.60;9.82;;;31.70;43.40;;;;;;5085856;28;20396;-63
2022/09/17 03:23:34;;;;;;;38.50;10.40;;;31.70;43.60;;;;;;5089085;28;20049;-62
2022/09/17 03:26:01;;;;;;;35.20;10.68;;;31.70;44.40;;;;;;5090462;28;20056;-57
2022/09/17 03:28:27;;;;;;;44.47;12.43;;;31.60;44.20;;;;;;5088501;28;20031;-62
2022/09/17 03:30:53;;;;;;;34.65;11.05;;;31.60;44.70;;;;;;5088061;28;20036;-63
2022/09/17 03:33:20;;;;;;;39.70;11.13;;;31.60;44.70;;;;;;5087864;28;20047;-63
2022/09/17 03:35:47;;;;;;;37.17;12.13;;;31.50;45.40;;;;;;5067097;28;20072;-62
2022/09/17 03:38:14;;;;;;;35.83;10.98;;;31.50;45.60;;;;;;5086899;28;20413;-63
2022/09/17 03:40:40;;;;;;;39.92;11.85;;;31.40;45.90;;;;;;5087839;28;20046;-62
2022/09/17 03:43:07;;;;;;;43.55;14.48;;;31.40;46.50;;;;;;5086260;28;20129;-63
2022/09/17 03:45:34;;;;;;;52.47;13.57;;;31.40;46.30;;;;;;5087309;28;20074;-64
2022/09/17 03:48:00;;;;;;;54.72;12.02;;;31.40;46.30;;;;;;5088291;28;20056;-62
2022/09/17 03:50:27;;;;;;;46.25;10.65;;;31.40;46.50;;;;;;5086802;28;20167;-64
2022/09/17 03:52:53;;;;;;;41.00;10.65;;;31.40;46.90;;;;;;5071020;28;20046;-65
2022/09/17 03:55:19;;;;;;;65.70;13.07;;;31.40;47.80;;;;;;5087579;28;20160;-63
2022/09/17 03:57:46;;;;;;;55.97;13.32;;;31.40;48.00;;;;;;5070164;28;20121;-63
2022/09/17 04:00:16;;;;;;;63.35;13.20;;;31.40;48.50;;;;;;5086967;28;20456;-64
2022/09/17 04:02:42;;;;;;;75.30;13.85;;;31.40;49.10;;;;;;5085716;28;20127;-65
2022/09/17 04:05:09;;;;;;;74.80;13.85;;;31.40;49.60;;;;;;5087578;28;20046;-64
2022/09/17 04:07:35;;;;;;;82.78;15.40;;;31.40;50.30;;;;;;5089135;28;20435;-62
2022/09/17 04:10:03;;;;;;;65.60;12.35;;;31.40;51.30;;;;;;5085807;28;20044;-64
2022/09/17 04:12:30;;;;;;;84.25;14.40;;;31.40;52.00;;;;;;5087585;28;20043;-62
2022/09/17 04:14:56;;;;;;;78.55;12.68;;;31.40;52.60;;;;;;5087378;28;20077;-62
2022/09/17 04:17:22;;;;;;;88.43;13.27;;;31.40;53.10;;;;;;5070751;28;20054;-64
2022/09/17 04:19:49;;;;;;;85.78;13.70;;;31.40;53.90;;;;;;5086274;28;20044;-63
2022/09/17 04:22:15;;;;;;;60.95;11.82;;;31.40;54.20;;;;;;5092444;28;20094;-62
2022/09/17 04:24:42;;;;;;;81.50;11.55;;;31.30;55.10;;;;;;5088297;28;20048;-62
2022/09/17 04:27:08;;;;;;;79.85;12.77;;;31.30;55.90;;;;;;5087105;28;20522;-61
2022/09/17 04:29:34;;;;;;;46.22;10.18;;;31.30;56.30;;;;;;5085162;28;20066;-61
2022/09/17 04:32:01;;;;;;;59.95;10.35;;;31.20;57.20;;;;;;5087029;28;20047;-62
2022/09/17 04:34:28;;;;;;;49.72;10.38;;;31.20;58.10;;;;;;5085271;28;20078;-61
2022/09/17 04:36:54;;;;;;;45.85;9.48;;;31.20;58.70;;;;;;5083006;28;20045;-62
2022/09/17 04:39:20;;;;;;;39.20;10.00;;;31.20;58.70;;;;;;5072919;28;20106;-62
2022/09/17 04:41:47;;;;;;;47.85;9.73;;;31.20;58.90;;;;;;5086402;28;20077;-64
2022/09/17 04:44:13;;;;;;;48.58;10.07;;;31.10;58.00;;;;;;5085604;28;20514;-65
2022/09/17 04:46:39;;;;;;;41.40;8.82;;;31.10;56.90;;;;;;5087585;28;20061;-63
2022/09/17 04:49:07;;;;;;;36.35;9.57;;;31.10;55.70;;;;;;5087164;28;20522;-61
2022/09/17 04:51:34;;;;;;;41.08;9.68;;;31.10;54.40;;;;;;5086785;28;20046;-62
2022/09/17 04:54:00;;;;;;;46.30;9.30;;;31.00;54.10;;;;;;5089442;28;20062;-61
2022/09/17 04:56:26;;;;;;;35.85;9.82;;;31.00;53.30;;;;;;5084617;28;20076;-62
2022/09/17 04:58:53;;;;;;;31.55;7.78;;;30.90;52.70;;;;;;5086640;28;20092;-64
2022/09/17 05:01:19;;;;;;;22.38;7.00;;;31.00;49.80;;;;;;5087292;28;20073;-62
2022/09/17 05:03:46;;;;;;;22.30;6.13;;;31.00;48.40;;;;;;5089139;28;20058;-62
2022/09/17 05:06:12;;;;;;;23.17;7.50;;;31.00;48.40;;;;;;5074646;28;20066;-61
2022/09/17 05:08:38;;;;;;;21.73;6.80;;;31.00;48.00;;;;;;5074000;28;20083;-62
2022/09/17 05:11:05;;;;;;;19.60;6.63;;;30.90;49.60;;;;;;5073686;28;20115;-62
2022/09/17 05:13:31;;;;;;;21.35;6.82;;;30.90;48.70;;;;;;5090490;28;20519;-64
2022/09/17 05:15:58;;;;;;;16.40;7.20;;;30.80;48.10;;;;;;5092617;28;21495;-63
2022/09/17 05:18:25;;;;;;;17.77;7.88;;;30.80;47.90;;;;;;5090022;28;20038;-64
2022/09/17 05:20:51;;;;;;;14.95;7.90;;;30.70;48.70;;;;;;5090597;28;20521;-64
2022/09/17 05:23:19;;;;;;;19.27;7.53;;;30.70;47.90;;;;;;5074063;28;20065;-62
2022/09/17 05:25:45;;;;;;;21.38;7.55;;;30.60;48.80;;;;;;5075020;28;20066;-61
2022/09/17 05:28:11;;;;;;;16.70;6.72;;;30.60;48.50;;;;;;5090204;28;20050;-63
2022/09/17 05:30:38;;;;;;;22.02;6.57;;;30.50;48.40;;;;;;5089312;28;20049;-62
2022/09/17 05:33:06;;;;;;;17.95;6.88;;;30.50;49.40;;;;;;5090420;28;20040;-63
2022/09/17 05:35:34;;;;;;;23.25;8.90;;;30.50;48.80;;;;;;5089947;28;20093;-62
2022/09/17 05:38:03;;;;;;;24.00;10.25;;;30.40;48.90;;;;;;5086858;28;20570;-64
2022/09/17 05:40:30;;;;;;;19.60;9.15;;;30.40;49.40;;;;;;5089159;28;20465;-62
2022/09/17 05:43:06;;;;;;;17.38;8.48;;;30.40;49.30;;;;;;5090973;28;20496;-63
2022/09/17 05:45:34;;;;;;;16.65;8.10;;;30.30;49.50;;;;;;5089247;28;20057;-61
2022/09/17 05:48:01;;;;;;;26.45;8.40;;;30.30;49.30;;;;;;5072763;28;20424;-63
2022/09/17 05:50:29;;;;;;;18.13;7.78;;;30.30;50.00;;;;;;5089192;28;20113;-62
2022/09/17 05:52:55;;;;;;;14.45;7.35;;;30.20;50.20;;;;;;5072055;28;20048;-62
2022/09/17 05:55:23;;;;;;;15.13;7.22;;;30.10;49.80;;;;;;5089716;28;20068;-62
2022/09/17 05:57:50;;;;;;;14.82;6.35;;;30.00;50.70;;;;;;5090348;28;20822;-64
2022/09/17 06:00:17;;;;;;;16.45;6.65;;;30.00;50.20;;;;;;5072540;28;20051;-60
2022/09/17 06:02:43;;;;;;;24.42;6.75;;;29.90;50.30;;;;;;5090485;28;20045;-62
2022/09/17 06:05:10;;;;;;;20.17;6.57;;;29.90;50.20;;;;;;5090407;28;20783;-62
2022/09/17 06:07:37;;;;;;;67.18;8.88;;;29.80;49.90;;;;;;5075967;28;20053;-63
2022/09/17 06:10:06;;;;;;;32.60;7.88;;;29.80;50.60;;;;;;5090763;28;20109;-60
2022/09/17 06:12:34;;;;;;;42.70;9.18;;;29.70;51.40;;;;;;5072242;28;20054;-60
2022/09/17 06:15:01;;;;;;;75.53;10.98;;;29.70;51.30;;;;;;5087879;28;20112;-60
2022/09/17 06:17:28;;;;;;;39.33;8.70;;;29.70;51.40;;;;;;5072103;28;20096;-62
2022/09/17 06:19:54;;;;;;;52.63;9.35;;;29.60;51.30;;;;;;5089851;28;20089;-61
2022/09/17 06:22:22;;;;;;;20.05;7.10;;;29.60;51.60;;;;;;5089175;28;20110;-61
2022/09/17 06:24:48;;;;;;;20.88;6.72;;;29.60;52.00;;;;;;5088965;28;20046;-60
2022/09/17 06:27:14;;;;;;;22.08;6.75;;;29.50;51.50;;;;;;5089526;28;20047;-60
2022/09/17 06:29:41;;;;;;;20.48;6.80;;;29.40;52.20;;;;;;5090163;28;20067;-61
2022/09/17 06:32:12;;;;;;;21.42;7.82;;;29.40;52.10;;;;;;5088745;28;20046;-61
2022/09/17 06:34:38;;;;;;;27.15;8.07;;;29.30;51.40;;;;;;5087476;28;20068;-59
2022/09/17 06:37:06;;;;;;;20.65;7.28;;;29.30;54.10;;;;;;5087955;28;20071;-62
2022/09/17 06:39:33;;;;;;;20.48;6.47;;;29.40;52.20;;;;;;5088592;28;20058;-62
2022/09/17 06:41:59;;;;;;;25.23;8.07;;;29.30;52.60;;;;;;5087066;28;20051;-63
2022/09/17 06:44:25;;;;;;;19.52;9.43;;;29.30;52.30;;;;;;5088989;28;20051;-62
2022/09/17 06:46:52;;;;;;;35.35;23.42;;;29.30;53.30;;;;;;5088826;28;20194;-61
2022/09/17 06:49:18;;;;;;;31.00;13.63;;;29.30;53.10;;;;;;5086518;28;20498;-61
2022/09/17 06:51:45;;;;;;;29.33;10.95;;;29.30;53.20;;;;;;5088166;28;20090;-62
2022/09/17 06:54:11;;;;;;;61.78;33.58;;;29.20;53.00;;;;;;5070180;28;20584;-61
2022/09/17 06:56:38;;;;;;;26.70;11.27;;;29.20;53.30;;;;;;5071359;28;20068;-59
2022/09/17 06:59:04;;;;;;;25.42;8.85;;;29.20;53.20;;;;;;5088432;28;20067;-60
2022/09/17 07:01:31;;;;;;;18.33;7.78;;;29.20;53.30;;;;;;5072069;28;20047;-61
2022/09/17 07:03:58;;;;;;;22.13;7.50;;;29.10;53.20;;;;;;5089206;28;20049;-62
2022/09/17 07:06:24;;;;;;;21.58;7.53;;;29.10;52.90;;;;;;5072119;28;20093;-62
2022/09/17 07:08:50;;;;;;;20.60;7.03;;;29.10;53.00;;;;;;5088448;28;20061;-61
2022/09/17 07:11:18;;;;;;;17.33;6.47;;;29.10;52.60;;;;;;5086983;28;20085;-61
2022/09/17 07:13:45;;;;;;;21.58;7.47;;;29.00;53.70;;;;;;5087668;28;20062;-62
2022/09/17 07:16:11;;;;;;;16.88;6.53;;;29.00;53.80;;;;;;5090948;28;20532;-60
2022/09/17 07:18:38;;;;;;;19.70;5.63;;;28.90;53.40;;;;;;5090718;28;20126;-62
2022/09/17 07:21:06;;;;;;;19.02;5.68;;;28.90;52.40;;;;;;5087095;28;20068;-62
2022/09/17 07:23:35;;;;;;;13.85;5.40;;;28.90;52.00;;;;;;5088049;28;20047;-61
2022/09/17 07:26:05;;;;;;;22.50;6.18;;;28.80;51.60;;;;;;5053621;28;20049;-58
2022/09/17 07:28:32;;;;;;;13.95;5.88;;;28.80;52.70;;;;;;5087717;28;20481;-62
2022/09/17 07:31:01;;;;;;;15.98;5.45;;;28.70;52.70;;;;;;5089938;28;20134;-62
2022/09/17 07:33:28;;;;;;;13.23;5.70;;;28.70;53.70;;;;;;5088868;28;20071;-60
2022/09/17 07:35:55;;;;;;;12.95;5.13;;;28.70;53.10;;;;;;5071259;28;20067;-61
2022/09/17 07:38:22;;;;;;;11.75;5.53;;;28.70;52.80;;;;;;5082826;28;20073;-62
2022/09/17 07:41:02;;;;;;;13.60;5.97;;;28.60;52.80;;;;;;5085394;28;20075;-62
2022/09/17 07:43:30;;;;;;;18.02;7.07;;;28.60;53.70;;;;;;5086309;28;20052;-61
2022/09/17 07:45:58;;;;;;;15.45;6.30;;;28.60;53.30;;;;;;5091321;28;20074;-63
2022/09/17 07:48:25;;;;;;;23.08;6.90;;;28.70;53.30;;;;;;5089763;28;20046;-60
2022/09/17 07:50:51;;;;;;;18.17;7.40;;;28.60;53.40;;;;;;5070349;28;20073;-61
2022/09/17 07:53:18;;;;;;;15.35;6.38;;;28.60;53.30;;;;;;5087443;28;20143;-60
2022/09/17 07:55:54;;;;;;;14.65;5.78;;;28.50;53.00;;;;;;5088406;28;20066;-63
2022/09/17 07:58:22;;;;;;;11.45;5.93;;;28.50;53.50;;;;;;5070537;28;20541;-61
2022/09/17 08:00:49;;;;;;;17.48;6.43;;;28.50;54.40;;;;;;5088578;28;20063;-62
2022/09/17 08:03:15;;;;;;;16.05;6.22;;;28.40;54.30;;;;;;5089293;28;20160;-64
2022/09/17 08:05:42;;;;;;;15.75;6.47;;;28.20;53.70;;;;;;5089413;28;20053;-61
2022/09/17 08:08:08;;;;;;;14.20;6.70;;;28.20;54.30;;;;;;5089644;28;20080;-62
2022/09/17 08:10:35;;;;;;;17.65;6.05;;;28.20;54.80;;;;;;5088131;28;20106;-63
2022/09/17 08:13:01;;;;;;;18.42;6.63;;;28.30;54.50;;;;;;5091046;28;20061;-61
2022/09/17 08:15:27;;;;;;;12.82;6.35;;;28.30;53.60;;;;;;5087186;28;20530;-63
2022/09/17 08:17:54;;;;;;;15.27;6.57;;;28.30;53.90;;;;;;5085931;28;20058;-61
2022/09/17 08:20:23;;;;;;;23.35;6.30;;;28.10;53.70;;;;;;5086664;28;20064;-62
2022/09/17 08:22:49;;;;;;;15.35;6.15;;;28.10;54.00;;;;;;5085767;28;20101;-62
2022/09/17 08:25:15;;;;;;;23.15;6.57;;;28.20;54.20;;;;;;5088499;28;20057;-62
2022/09/17 08:27:42;;;;;;;16.65;6.50;;;28.20;54.10;;;;;;5086764;28;20084;-61
2022/09/17 08:30:08;;;;;;;15.60;5.80;;;28.20;53.80;;;;;;5087913;28;20051;-62
2022/09/17 08:32:35;;;;;;;17.20;7.03;;;28.10;53.50;;;;;;5087938;28;20413;-60
2022/09/17 08:35:01;;;;;;;20.25;6.35;;;28.10;53.40;;;;;;5086015;28;20075;-62
2022/09/17 08:37:31;;;;;;;20.92;6.95;;;28.10;53.50;;;;;;5074701;28;20077;-62
2022/09/17 08:39:58;;;;;;;17.83;5.95;;;28.00;53.90;;;;;;5087150;28;20060;-61
2022/09/17 08:42:31;;;;;;;14.65;6.32;;;28.00;53.20;;;;;;5089882;28;20459;-62
2022/09/17 08:44:58;;;;;;;17.65;6.07;;;28.00;53.80;;;;;;5091966;28;20397;-64
2022/09/17 08:47:24;;;;;;;15.52;6.28;;;27.90;53.30;;;;;;5097618;28;20098;-61
2022/09/17 08:49:59;;;;;;;15.40;6.10;;;27.80;53.50;;;;;;5089874;28;20052;-59
2022/09/17 08:52:57;;;;;;;11.70;6.13;;;27.80;53.70;;;;;;5090137;28;20101;-60
2022/09/17 08:55:23;;;;;;;;;;;27.80;53.60;;;;;;5089220;28;20103;-59
2022/09/17 08:57:58;;;;;;;20.60;6.22;;;27.70;53.50;;;;;;5091241;28;19941;-62
2022/09/17 09:00:29;;;;;;;13.93;6.17;;;27.80;53.70;;;;;;5089510;28;20055;-64
2022/09/17 09:03:46;;;;;;;14.63;5.75;;;27.80;53.10;;;;;;5073909;28;20053;-61
2022/09/17 09:06:14;;;;;;;15.50;5.78;;;27.70;52.40;;;;;;5035573;28;20066;-62
2022/09/17 09:08:54;;;;;;;17.48;5.75;;;27.80;51.90;;;;;;5016217;28;20074;-61
2022/09/17 09:11:26;;;;;;;20.95;5.32;;;27.70;51.70;;;;;;5004950;28;20070;-61
2022/09/17 09:14:00;;;;;;;13.30;5.03;;;27.80;52.20;;;;;;5032119;28;20116;-62
2022/09/17 09:16:31;;;;;;;18.42;5.38;;;27.70;51.40;;;;;;5026934;28;20084;-64
2022/09/17 09:19:19;;;;;;;12.43;5.25;;;27.70;51.70;;;;;;5021744;28;20064;-61
2022/09/17 09:22:17;;;;;;;9.77;5.20;;;27.70;51.10;;;;;;5036383;28;20822;-62
2022/09/17 09:24:53;;;;;;;12.20;5.35;;;27.60;51.10;;;;;;5027133;28;20075;-62
2022/09/17 09:27:27;;;;;;;9.45;4.63;;;27.60;51.70;;;;;;5023558;28;20568;-62
2022/09/17 09:30:12;;;;;;;10.45;4.68;;;27.60;51.00;;;;;;5004848;28;20080;-62
2022/09/17 09:33:06;;;;;;;12.50;4.80;;;27.60;50.60;;;;;;5015592;28;20083;-61
2022/09/17 09:35:35;;;;;;;16.73;5.60;;;27.60;50.40;;;;;;5017347;28;20068;-62
2022/09/17 09:38:24;;;;;;;11.30;4.78;;;27.60;51.40;;;;;;5089027;28;20064;-62
2022/09/17 09:41:03;;;;;;;14.43;4.75;;;27.60;50.70;;;;;;5085536;28;20446;-61
2022/09/17 09:43:47;;;;;;;13.77;4.95;;;27.60;51.00;;;;;;5089087;28;20152;-61
2022/09/17 09:46:49;;;;;;;13.30;5.03;;;27.60;51.10;;;;;;5090619;28;20062;-62
2022/09/17 09:49:28;;;;;;;10.10;4.55;;;27.50;51.50;;;;;;5058496;28;20385;-61
2022/09/17 09:52:06;;;;;;;12.23;5.45;;;27.40;51.90;;;;;;5090713;28;20082;-60
2022/09/17 09:54:47;;;;;;;16.50;5.65;;;27.40;52.20;;;;;;5088684;28;20082;-62
2022/09/17 09:57:17;;;;;;;13.20;5.13;;;27.30;54.30;;;;;;5071726;28;20080;-61
2022/09/17 09:59:43;;;;;;;9.02;5.53;;;27.30;52.90;;;;;;5089121;28;20128;-61
2022/09/17 10:02:10;;;;;;;11.98;5.00;;;27.30;54.10;;;;;;5087687;28;20061;-61
2022/09/17 10:04:37;;;;;;;12.93;5.70;;;27.20;54.10;;;;;;5088164;28;20060;-61
2022/09/17 10:07:06;;;;;;;16.50;5.40;;;27.10;53.50;;;;;;5088918;28;20059;-63
2022/09/17 10:09:35;;;;;;;14.15;5.95;;;27.10;53.40;;;;;;5072678;28;20160;-62
2022/09/17 10:12:08;;;;;;;13.73;5.25;;;27.10;53.30;;;;;;5088324;28;20534;-62
2022/09/17 10:14:39;;;;;;;10.40;5.32;;;27.10;53.30;;;;;;5088997;28;20139;-63
2022/09/17 10:17:25;;;;;;;11.43;4.85;;;27.10;54.20;;;;;;5089200;28;20071;-62
2022/09/17 10:20:01;;;;;;;16.60;5.53;;;27.10;54.10;;;;;;5088704;28;20060;-62
2022/09/17 10:22:33;;;;;;;13.20;5.65;;;27.00;54.10;;;;;;5088342;28;20061;-62
2022/09/17 10:25:01;;;;;;;12.00;5.50;;;26.90;54.50;;;;;;5087779;28;20155;-62
2022/09/17 10:27:29;;;;;;;13.02;5.28;;;26.90;53.80;;;;;;5089015;28;20068;-62
2022/09/17 10:30:14;;;;;;;14.10;5.57;;;27.00;53.50;;;;;;5072223;28;20517;-60
2022/09/17 10:32:40;;;;;;;10.05;4.82;;;27.00;53.20;;;;;;5070718;28;20166;-63
2022/09/17 10:35:17;;;;;;;12.73;5.13;;;26.90;54.30;;;;;;5088663;28;20117;-62
2022/09/17 10:37:45;;;;;;;19.25;6.00;;;27.00;54.30;;;;;;5088756;28;20428;-61
2022/09/17 10:40:18;;;;;;;14.57;5.55;;;27.00;54.80;;;;;;5071544;28;20072;-63
2022/09/17 10:42:49;;;;;;;14.43;5.00;;;27.00;54.00;;;;;;5085514;28;20064;-61
2022/09/17 10:45:30;;;;;;;17.58;5.13;;;26.90;54.00;;;;;;5072905;28;20203;-61
2022/09/17 10:47:59;;;;;;;18.75;5.57;;;26.90;53.70;;;;;;5088847;28;20069;-60
2022/09/17 10:50:32;;;;;;;16.73;5.07;;;26.90;53.20;;;;;;5072187;28;20523;-60
2022/09/17 10:53:04;;;;;;;13.88;5.28;;;26.90;53.00;;;;;;5087730;28;20195;-60
2022/09/17 10:55:40;;;;;;;13.65;4.90;;;26.80;53.40;;;;;;5071805;28;20075;-62
2022/09/17 10:58:07;;;;;;;11.05;5.40;;;26.70;53.20;;;;;;5087851;28;20061;-61
2022/09/17 11:00:38;;;;;;;12.48;5.47;;;26.70;53.40;;;;;;5085633;28;20422;-61
2022/09/17 11:03:39;;;;;;;15.32;5.47;;;26.60;53.70;;;;;;5070159;28;20510;-61
2022/09/17 11:06:42;;;;;;;19.50;5.35;;;26.70;53.70;;;;;;5088454;28;20074;-61
2022/09/17 11:09:46;;;;;;;12.35;4.80;;;26.70;53.90;;;;;;5088824;28;20174;-61
2022/09/17 11:12:25;;;;;;;15.45;5.68;;;26.70;54.60;;;;;;5088649;28;20057;-64
2022/09/17 11:15:25;;;;;;;14.63;5.30;;;26.70;53.50;;;;;;5088165;28;20173;-62
2022/09/17 11:18:17;;;;;;;12.80;4.70;;;26.50;53.10;;;;;;5086074;28;20656;-61
2022/09/17 11:20:58;;;;;;;18.52;5.35;;;26.60;53.30;;;;;;5060770;28;20068;-62
2022/09/17 11:24:02;;;;;;;12.55;4.68;;;26.60;53.10;;;;;;5070618;28;20563;-61
2022/09/17 11:27:02;;;;;;;20.05;5.32;;;26.60;53.10;;;;;;5087412;28;20585;-62
2022/09/17 11:29:43;;;;;;;12.65;4.20;;;26.60;53.00;;;;;;5086985;28;20062;-62
2022/09/17 11:32:29;;;;;;;18.52;4.72;;;26.50;53.10;;;;;;5069882;28;20062;-61
2022/09/17 11:35:27;;;;;;;14.20;4.95;;;26.50;53.70;;;;;;5087912;28;20073;-61
2022/09/17 11:38:11;;;;;;;;;;;26.40;53.20;;;;;;5071938;28;20204;-60
2022/09/17 11:40:43;;;;;;;14.23;5.13;;;26.40;53.60;;;;;;5091554;28;20399;-61
2022/09/17 11:43:37;;;;;;;16.77;5.47;;;26.40;53.70;;;;;;5083620;28;20063;-62
2022/09/17 11:46:28;;;;;;;19.85;5.38;;;26.40;53.50;;;;;;5086411;28;20494;-61
2022/09/17 11:49:27;;;;;;;18.08;5.10;;;26.40;53.60;;;;;;5070200;28;20290;-61
2022/09/17 11:52:00;;;;;;;19.63;5.05;;;26.30;54.10;;;;;;5086290;28;20064;-63
2022/09/17 11:54:36;;;;;;;17.75;5.30;;;26.30;54.00;;;;;;5086834;28;20533;-62
2022/09/17 11:57:15;;;;;;;25.20;5.18;;;26.30;54.50;;;;;;5087099;28;20062;-62
2022/09/17 12:00:12;;;;;;;25.98;5.93;;;26.30;54.50;;;;;;5088875;28;20427;-63
2022/09/17 12:02:58;;;;;;;14.32;4.93;;;26.20;54.50;;;;;;5085889;28;20427;-57
2022/09/17 12:05:47;;;;;;;11.93;4.95;;;26.20;54.90;;;;;;5087126;28;20085;-61
2022/09/17 12:08:23;;;;;;;25.10;5.45;;;26.20;54.90;;;;;;5090519;28;20117;-62
2022/09/17 12:11:27;;;;;;;18.40;5.32;;;26.20;54.80;;;;;;5070755;28;20064;-60
2022/09/17 12:14:31;;;;;;;21.25;5.85;;;26.20;56.00;;;;;;5083835;28;20105;-61
2022/09/17 12:17:01;;;;;;;17.33;5.47;;;26.20;56.20;;;;;;5047817;28;20071;-61
2022/09/17 12:19:33;;;;;;;14.00;5.18;;;26.10;57.10;;;;;;5015779;28;20140;-63
2022/09/17 12:22:09;;;;;;;15.82;4.80;;;26.00;56.50;;;;;;5048801;28;20075;-62
2022/09/17 12:24:37;;;;;;;18.13;5.70;;;26.10;56.40;;;;;;5028079;28;20069;-61
2022/09/17 12:27:13;;;;;;;19.77;5.00;;;26.10;56.40;;;;;;5036405;28;20832;-62
2022/09/17 12:30:00;;;;;;;18.02;5.60;;;26.10;56.60;;;;;;5031439;28;20083;-62
2022/09/17 12:32:39;;;;;;;21.85;5.75;;;26.00;56.10;;;;;;5029918;28;20247;-63
2022/09/17 12:35:42;;;;;;;28.52;5.80;;;26.00;56.10;;;;;;5048722;28;20143;-62
2022/09/17 12:38:40;;;;;;;26.05;6.30;;;26.00;55.90;;;;;;5029356;28;20082;-62
2022/09/17 12:41:19;;;;;;;19.60;5.88;;;25.90;57.00;;;;;;5036752;28;20086;-61
2022/09/17 12:44:04;;;;;;;20.45;5.95;;;25.80;57.60;;;;;;5023999;28;20061;-62
2022/09/17 12:46:54;;;;;;;20.95;5.78;;;25.80;56.70;;;;;;5029729;28;20076;-61
2022/09/17 12:49:50;;;;;;;19.73;5.78;;;25.80;56.50;;;;;;5012745;28;20063;-60
2022/09/17 12:52:35;;;;;;;18.65;6.28;;;25.90;56.50;;;;;;5047403;28;20140;-61
2022/09/17 12:55:27;;;;;;;20.23;5.63;;;25.90;56.50;;;;;;5090107;28;20540;-64
2022/09/17 12:58:32;;;;;;;22.77;5.90;;;25.80;56.80;;;;;;5086350;28;20071;-62
2022/09/17 13:01:13;;;;;;;17.17;5.45;;;25.80;56.40;;;;;;5077018;28;20618;-62
2022/09/17 13:03:45;;;;;;;22.23;6.32;;;25.80;56.80;;;;;;5087968;28;20066;-63
2022/09/17 13:06:17;;;;;;;17.02;5.65;;;25.80;56.80;;;;;;5086908;28;20186;-62
2022/09/17 13:09:04;;;;;;;20.20;5.30;;;25.70;56.70;;;;;;5092941;28;20072;-62
2022/09/17 13:11:48;;;;;;;20.75;6.15;;;25.70;58.30;;;;;;5086255;28;20062;-62
2022/09/17 13:14:42;;;;;;;15.43;6.07;;;25.60;57.60;;;;;;5085115;28;20111;-61
2022/09/17 13:17:50;;;;;;;14.30;4.95;;;25.70;57.40;;;;;;5086743;28;20116;-61
2022/09/17 13:20:29;;;;;;;25.10;5.28;;;25.70;57.60;;;;;;5082411;28;20107;-62
2022/09/17 13:22:57;;;;;;;24.90;6.43;;;25.60;57.30;;;;;;5086482;28;20125;-61
2022/09/17 13:25:24;;;;;;;18.35;5.53;;;25.50;57.80;;;;;;5088774;28;21653;-64